createdAt,value
2023-06-13T00:01:08.310Z,7.35
2023-06-13T00:03:38.607Z,6.85
2023-06-13T00:06:08.393Z,7.32
2023-06-13T00:08:36.468Z,9.00
2023-06-13T00:11:06.281Z,6.97
2023-06-13T00:13:36.622Z,7.50
2023-06-13T00:16:03.825Z,7.43
2023-06-13T00:18:33.775Z,8.63
2023-06-13T00:21:00.891Z,8.15
2023-06-13T00:23:28.702Z,7.80
2023-06-13T00:25:55.824Z,8.82
2023-06-13T00:28:22.913Z,6.85
2023-06-13T00:30:50.004Z,7.47
2023-06-13T00:33:17.742Z,7.50
2023-06-13T00:35:47.828Z,9.38
2023-06-13T00:38:14.896Z,9.38
2023-06-13T00:40:42.025Z,8.45
2023-06-13T00:43:09.614Z,8.57
2023-06-13T00:45:36.918Z,8.25
2023-06-13T00:48:09.004Z,8.13
2023-06-13T00:50:41.651Z,8.80
2023-06-13T00:53:19.223Z,7.65
2023-06-13T00:55:47.822Z,8.55
2023-06-13T00:58:16.347Z,8.50
2023-06-13T01:00:47.104Z,6.43
2023-06-13T01:03:17.258Z,8.10
2023-06-13T01:05:45.539Z,9.10
2023-06-13T01:08:18.845Z,7.53
2023-06-13T01:10:53.988Z,9.65
2023-06-13T01:13:41.080Z,8.93
2023-06-13T01:16:30.719Z,6.38
2023-06-13T01:18:59.985Z,7.80
2023-06-13T01:21:28.296Z,8.68
2023-06-13T01:24:11.365Z,7.50
2023-06-13T01:27:00.770Z,7.72
2023-06-13T01:29:29.876Z,8.40
2023-06-13T01:32:00.805Z,7.50
2023-06-13T01:34:28.201Z,8.60
2023-06-13T01:36:55.552Z,7.65
2023-06-13T01:39:22.628Z,7.45
2023-06-13T01:41:49.553Z,6.75
2023-06-13T01:44:21.639Z,8.07
2023-06-13T01:47:08.762Z,6.93
2023-06-13T01:49:38.544Z,7.68
2023-06-13T01:52:24.599Z,9.05
2023-06-13T01:54:59.040Z,6.25
2023-06-13T01:57:32.575Z,7.75
2023-06-13T02:00:01.627Z,7.70
2023-06-13T02:02:29.358Z,7.00
2023-06-13T02:07:24.448Z,7.82
2023-06-13T02:09:51.229Z,8.25
2023-06-13T02:12:18.329Z,7.90
2023-06-13T02:14:47.784Z,8.40
2023-06-13T02:17:14.877Z,8.80
2023-06-13T02:19:41.842Z,8.32
2023-06-13T02:22:08.618Z,7.70
2023-06-13T02:24:37.142Z,8.35
2023-06-13T02:27:04.458Z,7.78
2023-06-13T02:29:32.768Z,8.05
2023-06-13T02:32:00.056Z,8.80
2023-06-13T02:34:27.235Z,6.78
2023-06-13T02:36:54.022Z,9.40
2023-06-13T02:39:20.966Z,8.35
2023-06-13T02:41:47.970Z,9.18
2023-06-13T02:44:14.878Z,8.23
2023-06-13T02:46:41.925Z,9.13
2023-06-13T02:49:09.002Z,7.75
2023-06-13T02:51:36.245Z,8.93
2023-06-13T02:54:03.300Z,7.40
2023-06-13T02:56:30.394Z,9.35
2023-06-13T02:58:57.267Z,8.18
2023-06-13T03:01:27.961Z,6.73
2023-06-13T03:03:54.833Z,7.60
2023-06-13T03:06:21.990Z,7.23
2023-06-13T03:08:50.157Z,7.53
2023-06-13T03:11:17.119Z,8.60
2023-06-13T03:13:44.514Z,8.35
2023-06-13T03:16:12.097Z,8.90
2023-06-13T03:18:39.011Z,9.18
2023-06-13T03:21:08.553Z,7.80
2023-06-13T03:23:35.539Z,7.47
2023-06-13T03:26:04.321Z,8.57
2023-06-13T03:28:31.405Z,8.25
2023-06-13T03:30:58.796Z,8.80
2023-06-13T03:33:25.974Z,7.60
2023-06-13T03:35:55.568Z,8.68
2023-06-13T03:38:24.329Z,9.63
2023-06-13T03:40:51.988Z,9.93
2023-06-13T03:43:30.051Z,10.13
2023-06-13T03:45:58.332Z,7.78
2023-06-13T03:48:28.839Z,8.65
2023-06-13T03:50:55.792Z,7.70
2023-06-13T03:53:22.660Z,8.60
2023-06-13T03:55:50.159Z,6.03
2023-06-13T03:58:17.246Z,6.75
2023-06-13T04:00:45.801Z,6.43
2023-06-13T04:03:13.248Z,6.85
2023-06-13T04:05:40.229Z,7.40
2023-06-13T04:08:08.636Z,6.90
2023-06-13T04:10:36.324Z,5.20
2023-06-13T04:15:31.490Z,4.63
2023-06-13T04:17:58.563Z,6.63
2023-06-13T04:20:25.717Z,7.65
2023-06-13T04:22:53.506Z,5.60
2023-06-13T04:25:20.519Z,6.28
2023-06-13T04:27:49.815Z,5.75
2023-06-13T04:30:17.285Z,4.47
2023-06-13T04:35:19.226Z,7.35
2023-06-13T04:37:47.872Z,6.55
2023-06-13T04:40:15.098Z,5.85
2023-06-13T04:42:55.160Z,5.70
2023-06-13T04:45:22.949Z,7.00
2023-06-13T04:47:56.606Z,5.32
2023-06-13T04:50:26.711Z,7.43
2023-06-13T04:52:55.857Z,5.65
2023-06-13T04:55:24.410Z,6.15
2023-06-13T04:57:51.915Z,6.35
2023-06-13T05:00:20.379Z,7.20
2023-06-13T05:02:47.503Z,5.57
2023-06-13T05:05:18.054Z,6.40
2023-06-13T05:07:45.732Z,5.22
2023-06-13T05:10:17.417Z,7.10
2023-06-13T05:12:45.502Z,6.15
2023-06-13T05:15:12.346Z,5.70
2023-06-13T05:17:40.278Z,5.50
2023-06-13T05:20:08.015Z,5.72
2023-06-13T05:22:34.831Z,7.13
2023-06-13T05:25:02.244Z,5.97
2023-06-13T05:27:29.049Z,6.65
2023-06-13T05:29:55.933Z,5.78
2023-06-13T05:32:24.475Z,6.85
2023-06-13T05:34:51.321Z,7.30
2023-06-13T05:37:21.290Z,8.40
2023-06-13T05:39:48.154Z,12.88
2023-06-13T05:42:14.909Z,9.30
2023-06-13T05:44:44.865Z,10.18
2023-06-13T05:47:11.828Z,8.20
2023-06-13T05:49:38.612Z,6.15
2023-06-13T05:52:06.061Z,5.70
2023-06-13T05:54:33.875Z,6.82
2023-06-13T05:59:29.104Z,5.70
2023-06-13T06:01:56.057Z,5.57
2023-06-13T06:04:23.477Z,5.75
2023-06-13T06:09:17.754Z,5.55
2023-06-13T06:11:47.012Z,5.70
2023-06-13T06:14:14.257Z,6.18
2023-06-13T06:16:41.100Z,5.20
2023-06-13T06:19:08.235Z,7.63
2023-06-13T06:21:35.261Z,6.10
2023-06-13T06:24:03.436Z,6.75
2023-06-13T06:26:30.597Z,4.32
2023-06-13T06:28:57.549Z,5.75
2023-06-13T06:31:25.424Z,4.53
2023-06-13T06:33:52.312Z,6.75
2023-06-13T06:36:19.275Z,7.82
2023-06-13T06:38:46.072Z,7.13
2023-06-13T06:41:12.802Z,5.40
2023-06-13T06:43:39.522Z,6.28
2023-06-13T06:46:10.792Z,8.98
2023-06-13T06:48:38.124Z,8.10
2023-06-13T06:51:05.055Z,6.90
2023-06-13T06:53:31.828Z,6.47
2023-06-13T06:55:58.582Z,10.25
2023-06-13T06:58:25.288Z,10.60
2023-06-13T07:00:53.866Z,5.35
2023-06-13T07:03:21.053Z,5.00
2023-06-13T07:05:48.736Z,6.95
2023-06-13T07:08:15.662Z,5.85
2023-06-13T07:10:42.541Z,5.15
2023-06-13T07:13:09.429Z,8.68
2023-06-13T07:15:37.110Z,6.43
2023-06-13T07:18:06.499Z,5.15
2023-06-13T07:20:33.504Z,5.88
2023-06-13T07:23:00.240Z,6.97
2023-06-13T07:25:29.049Z,6.90
2023-06-13T07:27:55.880Z,4.68
2023-06-13T07:30:22.687Z,7.40
2023-06-13T07:32:49.854Z,6.47
2023-06-13T07:35:17.609Z,4.60
2023-06-13T07:37:44.423Z,4.68
2023-06-13T07:40:12.025Z,6.95
2023-06-13T07:42:39.021Z,4.85
2023-06-13T07:45:06.498Z,6.75
2023-06-13T07:47:33.305Z,6.18
2023-06-13T07:50:00.464Z,5.47
2023-06-13T07:52:27.234Z,6.20
2023-06-13T07:54:54.134Z,7.95
2023-06-13T07:57:39.766Z,6.55
2023-06-13T08:00:16.264Z,6.63
2023-06-13T08:02:47.011Z,6.40
2023-06-13T08:05:16.018Z,7.30
2023-06-13T08:07:43.470Z,8.00
2023-06-13T08:12:41.164Z,6.22
2023-06-13T08:15:08.742Z,5.75
2023-06-13T08:17:37.940Z,5.95
2023-06-13T08:20:06.265Z,5.75
2023-06-13T08:22:33.281Z,6.43
2023-06-13T08:25:00.270Z,5.55
2023-06-13T08:27:27.021Z,5.38
2023-06-13T08:29:53.770Z,6.97
2023-06-13T08:32:21.392Z,6.95
2023-06-13T08:34:49.308Z,5.90
2023-06-13T08:37:15.986Z,5.78
2023-06-13T08:39:43.451Z,8.38
2023-06-13T08:42:11.867Z,9.52
2023-06-13T08:44:39.697Z,6.22
2023-06-13T08:47:07.103Z,6.15
2023-06-13T08:49:34.773Z,7.00
2023-06-13T08:52:04.428Z,5.95
2023-06-13T08:54:39.379Z,5.55
2023-06-13T08:57:19.690Z,7.10
2023-06-13T08:59:49.654Z,7.10
2023-06-13T09:02:27.178Z,7.70
2023-06-13T09:04:58.448Z,6.10
2023-06-13T09:07:28.026Z,10.48
2023-06-13T09:10:00.656Z,9.90
2023-06-13T09:12:28.185Z,8.27
2023-06-13T09:14:55.018Z,5.95
2023-06-13T09:17:22.244Z,5.30
2023-06-13T09:19:49.636Z,8.55
2023-06-13T09:22:19.196Z,5.82
2023-06-13T09:24:47.598Z,8.15
2023-06-13T09:27:15.374Z,5.90
2023-06-13T09:29:42.097Z,5.70
2023-06-13T09:32:12.348Z,5.97
2023-06-13T09:34:39.734Z,5.20
2023-06-13T09:37:09.144Z,5.20
2023-06-13T09:39:55.480Z,7.00
2023-06-13T09:42:25.823Z,5.03
2023-06-13T09:47:42.760Z,6.10
2023-06-13T09:50:10.207Z,4.03
2023-06-13T09:52:37.361Z,4.55
2023-06-13T09:55:04.420Z,5.00
2023-06-13T09:58:01.299Z,4.38
2023-06-13T10:00:21.623Z,4.55
2023-06-13T10:02:48.468Z,4.72
2023-06-13T10:05:18.332Z,6.57
2023-06-13T10:07:45.227Z,4.25
2023-06-13T10:10:12.093Z,5.40
2023-06-13T10:12:45.329Z,4.78
2023-06-13T10:15:17.070Z,5.35
2023-06-13T10:17:46.711Z,4.90
2023-06-13T10:20:19.344Z,4.70
2023-06-13T10:22:50.039Z,4.97
2023-06-13T10:25:20.616Z,5.22
2023-06-13T10:27:52.185Z,6.03
2023-06-13T10:30:25.085Z,4.60
2023-06-13T10:33:13.257Z,4.60
2023-06-13T10:36:03.641Z,3.92
2023-06-13T10:38:59.309Z,3.70
2023-06-13T10:41:41.366Z,5.00
2023-06-13T10:44:16.831Z,4.88
2023-06-13T10:46:44.267Z,4.25
2023-06-13T10:51:46.004Z,4.70
2023-06-13T10:54:14.558Z,4.68
2023-06-13T10:56:45.266Z,4.63
2023-06-13T10:59:16.785Z,6.32
2023-06-13T11:01:47.930Z,5.22
2023-06-13T11:04:23.467Z,4.72
2023-06-13T11:06:53.654Z,4.35
2023-06-13T11:09:25.102Z,6.10
2023-06-13T11:12:00.051Z,3.30
2023-06-13T11:14:38.307Z,5.07
2023-06-13T11:17:05.598Z,8.50
2023-06-13T11:19:40.131Z,5.32
2023-06-13T11:22:14.645Z,3.60
2023-06-13T11:24:42.685Z,5.60
2023-06-13T11:27:15.964Z,5.47
2023-06-13T11:29:47.096Z,4.53
2023-06-13T11:32:14.360Z,5.75
2023-06-13T11:34:51.346Z,5.78
2023-06-13T11:37:37.292Z,5.95
2023-06-13T11:40:18.838Z,5.22
2023-06-13T11:42:47.419Z,6.50
2023-06-13T11:45:14.266Z,4.35
2023-06-13T11:47:58.844Z,4.03
2023-06-13T11:50:27.079Z,6.18
2023-06-13T11:53:05.140Z,8.20
2023-06-13T11:55:32.287Z,4.43
2023-06-13T11:57:59.102Z,4.53
2023-06-13T12:00:29.533Z,6.15
2023-06-13T12:03:01.153Z,4.88
2023-06-13T12:05:28.704Z,4.85
2023-06-13T12:07:55.792Z,4.50
2023-06-13T12:10:22.618Z,5.50
2023-06-13T12:12:59.483Z,6.88
2023-06-13T12:15:29.855Z,5.82
2023-06-13T12:18:01.905Z,4.43
2023-06-13T12:20:29.940Z,4.22
2023-06-13T12:23:03.099Z,5.75
2023-06-13T12:25:34.101Z,6.80
2023-06-13T12:28:04.522Z,4.20
2023-06-13T12:30:40.540Z,4.85
2023-06-13T12:33:07.913Z,3.50
2023-06-13T12:35:34.977Z,6.30
2023-06-13T12:38:02.405Z,19.95
2023-06-13T12:40:33.882Z,5.40
2023-06-13T12:43:02.897Z,4.65
2023-06-13T12:45:33.103Z,4.93
2023-06-13T12:48:00.252Z,5.75
2023-06-13T12:50:29.215Z,4.45
2023-06-13T12:53:08.627Z,4.82
2023-06-13T12:55:42.903Z,6.40
2023-06-13T12:58:28.468Z,5.30
2023-06-13T13:00:55.295Z,4.95
2023-06-13T13:03:22.499Z,4.95
2023-06-13T13:05:52.026Z,6.20
2023-06-13T13:08:19.761Z,3.40
2023-06-13T13:10:49.685Z,7.60
2023-06-13T13:13:20.800Z,4.07
2023-06-13T13:15:47.762Z,5.22
2023-06-13T13:18:15.120Z,3.97
2023-06-13T13:20:42.392Z,7.93
2023-06-13T13:23:09.424Z,6.38
2023-06-13T13:25:38.319Z,5.60
2023-06-13T13:28:07.419Z,4.95
2023-06-13T13:30:36.528Z,7.25
2023-06-13T13:33:05.217Z,5.93
2023-06-13T13:35:32.742Z,7.00
2023-06-13T13:40:29.654Z,3.75
2023-06-13T13:42:56.863Z,10.45
2023-06-13T13:45:24.643Z,6.30
2023-06-13T13:47:52.003Z,6.82
2023-06-13T13:52:45.984Z,7.35
2023-06-13T13:55:16.385Z,6.63
2023-06-13T13:57:43.509Z,5.88
2023-06-13T14:00:11.091Z,7.78
2023-06-13T14:02:38.049Z,5.80
2023-06-13T14:05:05.774Z,4.78
2023-06-13T14:07:33.520Z,7.13
2023-06-13T14:10:00.398Z,10.20
2023-06-13T14:12:28.144Z,6.13
2023-06-13T14:14:58.439Z,8.93
2023-06-13T14:17:25.441Z,5.35
2023-06-13T14:22:20.893Z,6.78
2023-06-13T14:24:47.862Z,5.88
2023-06-13T14:27:17.445Z,6.03
2023-06-13T14:29:44.245Z,5.45
2023-06-13T14:32:11.568Z,6.45
2023-06-13T14:34:38.672Z,5.47
2023-06-13T14:37:07.496Z,6.72
2023-06-13T14:39:34.819Z,5.20
2023-06-13T14:42:01.883Z,4.72
2023-06-13T14:44:28.921Z,5.38
2023-06-13T14:46:55.919Z,7.75
2023-06-13T14:49:26.788Z,7.72
2023-06-13T14:51:57.572Z,5.55
2023-06-13T14:54:24.547Z,6.85
2023-06-13T14:56:51.551Z,7.10
2023-06-13T14:59:18.362Z,6.38
2023-06-13T15:01:45.741Z,6.47
2023-06-13T15:04:12.717Z,6.20
2023-06-13T15:06:39.725Z,5.93
2023-06-13T15:09:06.708Z,7.40
2023-06-13T15:11:34.097Z,7.45
2023-06-13T15:14:03.756Z,6.10
2023-06-13T15:16:30.997Z,5.45
2023-06-13T15:18:57.950Z,5.75
2023-06-13T15:21:24.849Z,5.45
2023-06-13T15:23:51.684Z,4.10
2023-06-13T15:26:18.443Z,4.78
2023-06-13T15:28:49.548Z,5.60
2023-06-13T15:31:19.189Z,6.10
2023-06-13T15:33:46.320Z,8.20
2023-06-13T15:36:13.476Z,6.40
2023-06-13T15:38:41.622Z,6.22
2023-06-13T15:41:08.577Z,5.15
2023-06-13T15:43:35.576Z,5.50
2023-06-13T15:46:05.137Z,5.40
2023-06-13T15:48:31.866Z,3.58
2023-06-13T15:50:59.432Z,5.38
2023-06-13T15:56:05.960Z,6.95
2023-06-13T15:58:33.736Z,5.15
2023-06-13T16:01:03.196Z,6.40
2023-06-13T16:03:30.328Z,5.93
2023-06-13T16:05:58.379Z,5.28
2023-06-13T16:08:32.830Z,6.50
2023-06-13T16:10:59.991Z,5.65
2023-06-13T16:13:28.414Z,10.20
2023-06-13T16:15:55.245Z,5.97
2023-06-13T16:18:22.507Z,6.63
2023-06-13T16:20:49.436Z,5.78
2023-06-13T16:23:28.664Z,4.13
2023-06-13T16:25:56.015Z,4.68
2023-06-13T16:28:28.032Z,7.10
2023-06-13T16:30:55.125Z,5.80
2023-06-13T16:33:22.230Z,6.18
2023-06-13T16:35:49.202Z,4.90
2023-06-13T16:38:16.121Z,5.20
2023-06-13T16:40:43.300Z,6.88
2023-06-13T16:43:10.638Z,6.88
2023-06-13T16:45:38.252Z,6.07
2023-06-13T16:53:03.443Z,4.93
2023-06-13T16:55:30.904Z,5.68
2023-06-13T16:57:57.879Z,15.30
2023-06-13T17:00:26.953Z,17.15
2023-06-13T17:02:53.785Z,20.88
2023-06-13T17:05:21.177Z,15.90
2023-06-13T17:07:48.110Z,13.85
2023-06-13T17:10:20.314Z,20.48
2023-06-13T17:12:47.783Z,17.27
2023-06-13T17:17:42.080Z,12.85
2023-06-13T17:20:09.209Z,15.77
2023-06-13T17:22:36.795Z,27.58
2023-06-13T17:25:03.750Z,14.70
2023-06-13T17:27:30.643Z,10.02
2023-06-13T17:30:01.028Z,12.45
2023-06-13T17:32:31.562Z,9.20
2023-06-13T17:34:58.779Z,6.75
2023-06-13T17:37:30.412Z,6.20
2023-06-13T17:40:01.027Z,11.27
2023-06-13T17:42:31.011Z,7.90
2023-06-13T17:44:58.219Z,5.63
2023-06-13T17:47:25.388Z,6.68
2023-06-13T17:49:58.677Z,16.17
2023-06-13T17:52:35.827Z,11.90
2023-06-13T17:55:02.721Z,15.63
2023-06-13T17:57:30.352Z,70.72
2023-06-13T18:02:27.779Z,38.30
2023-06-13T18:04:54.557Z,43.25
2023-06-13T18:07:21.786Z,40.90
2023-06-13T18:09:52.208Z,30.73
2023-06-13T18:12:22.245Z,17.70
2023-06-13T18:14:53.066Z,19.92
2023-06-13T18:17:20.258Z,17.95
2023-06-13T18:19:47.737Z,18.17
2023-06-13T18:22:15.591Z,23.30
2023-06-13T18:24:42.767Z,22.48
2023-06-13T18:27:13.656Z,14.13
2023-06-13T18:29:41.507Z,18.00
2023-06-13T18:32:09.108Z,22.85
2023-06-13T18:37:13.931Z,13.55
2023-06-13T18:39:45.427Z,22.10
2023-06-13T18:42:22.547Z,33.67
2023-06-13T18:45:13.253Z,24.23
2023-06-13T18:48:05.100Z,16.67
2023-06-13T18:50:33.448Z,16.73
2023-06-13T18:53:08.093Z,15.15
2023-06-13T18:55:38.201Z,10.02
2023-06-13T18:58:06.670Z,10.20
2023-06-13T19:00:36.435Z,11.00
2023-06-13T19:03:07.676Z,7.75
2023-06-13T19:05:35.781Z,8.18
2023-06-13T19:08:04.296Z,7.70
2023-06-13T19:10:38.073Z,6.32
2023-06-13T19:13:05.775Z,5.60
2023-06-13T19:18:05.639Z,6.32
2023-06-13T19:20:38.048Z,6.45
2023-06-13T19:23:05.844Z,5.82
2023-06-13T19:25:33.545Z,6.20
2023-06-13T19:30:47.165Z,5.03
2023-06-13T19:35:45.325Z,3.60
2023-06-13T19:38:12.702Z,5.95
2023-06-13T19:40:40.731Z,9.73
2023-06-13T19:43:09.524Z,7.70
2023-06-13T19:45:36.531Z,6.05
2023-06-13T19:48:17.887Z,7.13
2023-06-13T19:50:47.857Z,7.40
2023-06-13T19:53:14.887Z,8.45
2023-06-13T19:55:41.775Z,11.00
2023-06-13T19:58:09.683Z,9.35
2023-06-13T20:00:47.635Z,10.10
2023-06-13T20:03:20.822Z,5.80
2023-06-13T20:05:48.398Z,5.78
2023-06-13T20:08:18.003Z,6.35
2023-06-13T20:10:57.497Z,5.72
2023-06-13T20:13:24.605Z,5.90
2023-06-13T20:15:53.909Z,6.28
2023-06-13T20:18:24.669Z,6.60
2023-06-13T20:20:52.495Z,4.75
2023-06-13T20:23:23.376Z,5.68
2023-06-13T20:25:53.322Z,5.15
2023-06-13T20:28:20.964Z,7.35
2023-06-13T20:33:15.428Z,9.43
2023-06-13T20:35:42.497Z,7.82
2023-06-13T20:38:09.941Z,7.35
2023-06-13T20:40:37.576Z,5.80
2023-06-13T20:43:05.705Z,6.75
2023-06-13T20:45:36.239Z,7.07
2023-06-13T20:48:03.672Z,6.05
2023-06-13T20:50:32.405Z,5.18
2023-06-13T20:53:02.140Z,4.75
2023-06-13T20:55:30.096Z,5.03
2023-06-13T20:57:57.988Z,4.97
2023-06-13T21:00:27.394Z,3.50
2023-06-13T21:02:58.103Z,4.22
2023-06-13T21:05:27.446Z,6.00
2023-06-13T21:07:59.029Z,8.30
2023-06-13T21:10:29.824Z,6.28
2023-06-13T21:12:57.845Z,6.72
2023-06-13T21:15:26.548Z,4.80
2023-06-13T21:17:57.232Z,4.65
2023-06-13T21:20:28.262Z,7.00
2023-06-13T21:22:55.559Z,6.05
2023-06-13T21:25:24.735Z,8.60
2023-06-13T21:27:53.240Z,5.72
2023-06-13T21:30:21.371Z,5.13
2023-06-13T21:32:52.375Z,5.97
2023-06-13T21:35:21.364Z,6.03
2023-06-13T21:37:48.810Z,6.57
2023-06-13T21:40:16.424Z,6.25
2023-06-13T21:42:44.207Z,6.80
2023-06-13T21:45:15.057Z,6.22
2023-06-13T21:47:44.700Z,7.05
2023-06-13T21:50:12.095Z,6.78
2023-06-13T21:52:39.447Z,5.38
2023-06-13T21:55:10.762Z,7.40
2023-06-13T21:57:38.786Z,6.53
2023-06-13T22:00:08.251Z,8.57
2023-06-13T22:02:35.447Z,7.28
2023-06-13T22:05:03.025Z,8.65
2023-06-13T22:07:33.190Z,6.05
2023-06-13T22:10:01.308Z,5.95
2023-06-13T22:12:31.795Z,6.22
2023-06-13T22:14:58.708Z,7.07
2023-06-13T22:17:29.925Z,6.90
2023-06-13T22:20:03.703Z,7.72
2023-06-13T22:22:31.231Z,7.63
2023-06-13T22:25:00.555Z,6.32
2023-06-13T22:27:28.948Z,5.90
2023-06-13T22:29:57.135Z,7.15
2023-06-13T22:32:27.617Z,7.18
2023-06-13T22:34:57.393Z,7.88
2023-06-13T22:37:24.580Z,7.50
2023-06-13T22:39:55.000Z,8.05
2023-06-13T22:42:21.921Z,8.73
2023-06-13T22:44:48.950Z,10.38
2023-06-13T22:47:16.216Z,9.55
2023-06-13T22:49:43.277Z,9.25
2023-06-13T22:52:12.509Z,8.15
2023-06-13T22:54:39.457Z,7.57
2023-06-13T22:57:07.563Z,10.18
2023-06-13T22:59:34.551Z,9.75
2023-06-13T23:02:05.244Z,9.93
2023-06-13T23:04:32.081Z,9.73
2023-06-13T23:06:59.034Z,10.83
2023-06-13T23:09:26.383Z,9.60
2023-06-13T23:11:53.341Z,7.32
2023-06-13T23:14:20.391Z,9.77
2023-06-13T23:16:47.876Z,9.10
2023-06-13T23:19:18.375Z,9.38
2023-06-13T23:21:45.919Z,9.70
2023-06-13T23:24:15.927Z,8.43
2023-06-13T23:26:43.509Z,9.38
2023-06-13T23:29:11.637Z,10.07
2023-06-13T23:31:40.549Z,9.25
2023-06-13T23:34:09.207Z,10.82
2023-06-13T23:36:38.603Z,11.45
2023-06-13T23:39:07.761Z,11.85
2023-06-13T23:41:40.596Z,11.27
2023-06-13T23:44:08.390Z,11.55
2023-06-13T23:49:08.698Z,10.32
2023-06-13T23:51:36.716Z,11.48
2023-06-13T23:54:04.412Z,10.57
2023-06-13T23:58:58.428Z,11.50
